Time;durP1;ratioP1;P1;durP2;ratioP2;P2;SDS_P1;SDS_P2;PMS_P1;PMS_P2;Temp;Humidity;BMP_temperature;BMP_pressure;BME280_temperature;BME280_humidity;BME280_pressure;Samples;Min_cycle;Max_cycle;Signal;HPM_P1;HPM_P2
2022/04/20 00:02:15;;;;;;;19.45;10.13;;;;;;;7.40;82.51;101783.72;5089743;28;20327;-78
2022/04/20 00:04:40;;;;;;;18.27;10.32;;;;;;;7.34;82.05;101784.94;5054996;28;20100;-77
2022/04/20 00:07:06;;;;;;;21.15;10.23;;;;;;;7.31;82.30;101787.78;5089799;28;20468;-77
2022/04/20 00:09:31;;;;;;;18.85;10.30;;;;;;;7.25;82.57;101780.22;5071428;28;20039;-77
2022/04/20 00:11:57;;;;;;;18.23;10.50;;;;;;;7.22;82.55;101783.06;5071322;28;20065;-77
2022/04/20 00:14:22;;;;;;;15.70;9.98;;;;;;;7.17;82.84;101790.44;5071493;28;20040;-77
2022/04/20 00:16:47;;;;;;;16.60;10.30;;;;;;;7.13;83.24;101786.28;5071179;28;20176;-78
2022/04/20 00:19:13;;;;;;;18.17;10.30;;;;;;;7.06;83.60;101778.72;5071939;28;20181;-76
2022/04/20 00:21:38;;;;;;;18.05;10.38;;;;;;;7.01;83.89;101786.06;5071072;28;20217;-76
2022/04/20 00:24:04;;;;;;;17.38;9.88;;;;;;;6.95;83.76;101783.78;5089060;28;20032;-76
2022/04/20 00:26:29;;;;;;;17.60;10.20;;;;;;;6.87;83.98;101780.78;5089596;28;20038;-77
2022/04/20 00:28:54;;;;;;;23.33;9.27;;;;;;;6.81;84.37;101786.44;5088711;28;20066;-78
2022/04/20 00:31:20;;;;;;;18.00;9.95;;;;;;;6.74;85.07;101788.56;5089834;28;20110;-77
2022/04/20 00:33:45;;;;;;;16.83;10.38;;;;;;;6.68;85.57;101787.13;5070908;28;20028;-76
2022/04/20 00:36:11;;;;;;;15.73;10.43;;;;;;;6.61;85.80;101787.59;5088682;28;20085;-76
2022/04/20 00:38:36;;;;;;;19.23;10.18;;;;;;;6.56;86.19;101801.09;5071773;28;20032;-77
2022/04/20 00:41:02;;;;;;;16.42;9.73;;;;;;;6.50;86.01;101802.28;5088322;28;20044;-76
2022/04/20 00:43:28;;;;;;;18.20;10.10;;;;;;;6.46;86.57;101802.56;5089629;28;20432;-76
2022/04/20 00:45:54;;;;;;;14.75;9.45;;;;;;;6.47;86.50;101801.63;5070422;28;20028;-77
2022/04/20 00:48:20;;;;;;;14.57;9.45;;;;;;;6.46;86.63;101807.84;5088850;28;20043;-77
2022/04/20 00:50:46;;;;;;;15.38;9.48;;;;;;;6.43;86.83;101808.03;5089378;28;20036;-78
2022/04/20 00:53:11;;;;;;;15.10;9.80;;;;;;;6.40;87.23;101809.03;5088627;28;20157;-78
2022/04/20 00:55:37;;;;;;;14.50;9.07;;;;;;;6.34;86.76;101806.75;5089290;28;20036;-77
2022/04/20 00:58:02;;;;;;;16.15;9.82;;;;;;;6.28;87.10;101801.81;5070057;28;20056;-76
2022/04/20 01:00:29;;;;;;;15.40;9.77;;;;;;;6.21;87.20;101806.63;5053918;28;20487;-76
2022/04/20 01:02:55;;;;;;;16.33;9.98;;;;;;;6.15;87.55;101809.59;5088470;28;20097;-77
2022/04/20 01:05:21;;;;;;;16.00;9.98;;;;;;;6.09;87.75;101805.53;5089365;28;20036;-77
2022/04/20 01:07:47;;;;;;;16.58;9.82;;;;;;;6.07;88.39;101811.81;5088725;28;20361;-75
2022/04/20 01:10:12;;;;;;;16.27;9.93;;;;;;;6.02;88.76;101812.09;5070307;28;20028;-76
2022/04/20 01:12:39;;;;;;;14.98;9.55;;;;;;;5.96;89.13;101802.69;5088869;28;20383;-77
2022/04/20 01:15:05;;;;;;;14.93;10.23;;;;;;;5.91;89.19;101806.50;5069824;28;20047;-76
2022/04/20 01:17:30;;;;;;;16.42;10.27;;;;;;;5.87;89.46;101803.19;5089161;28;20028;-75
2022/04/20 01:19:57;;;;;;;15.63;10.02;;;;;;;5.80;89.25;101804.47;5088369;28;20318;-76
2022/04/20 01:22:22;;;;;;;17.75;9.60;;;;;;;5.73;89.09;101801.31;5090662;28;20222;-76
2022/04/20 01:24:48;;;;;;;19.80;10.07;;;;;;;5.70;89.60;101805.91;5091495;28;20137;-76
2022/04/20 01:27:14;;;;;;;17.08;10.52;;;;;;;5.63;89.46;101808.03;5088241;28;20036;-76
2022/04/20 01:29:40;;;;;;;16.25;9.23;;;;;;;5.58;89.34;101799.50;5089043;28;20035;-76
2022/04/20 01:32:06;;;;;;;16.15;9.98;;;;;;;5.54;89.62;101800.59;5088318;28;20111;-79
2022/04/20 01:34:33;;;;;;;17.27;9.82;;;;;;;5.48;89.99;101801.78;5070705;28;20051;-76
2022/04/20 01:36:58;;;;;;;14.77;10.00;;;;;;;5.42;90.63;101800.34;5088524;28;20053;-77
2022/04/20 01:39:24;;;;;;;14.23;10.13;;;;;;;5.36;90.73;101811.22;5088726;28;20115;-77
2022/04/20 01:41:49;;;;;;;14.00;9.30;;;;;;;5.30;90.84;101812.38;5070330;28;20048;-78
2022/04/20 01:44:14;;;;;;;20.45;9.90;;;;;;;5.27;91.20;101806.44;5053297;28;20559;-77
2022/04/20 01:46:40;;;;;;;17.42;9.45;;;;;;;5.23;91.26;101810.16;5088477;28;20126;-76
2022/04/20 01:49:05;;;;;;;14.27;9.70;;;;;;;5.18;91.33;101805.13;5088273;28;20036;-78
2022/04/20 01:54:14;;;;;;;17.90;10.30;;;;;;;5.07;91.71;101799.53;5088323;28;20073;-76
2022/04/20 01:56:40;;;;;;;17.90;9.95;;;;;;;5.03;92.36;101798.88;5070679;28;20039;-77
2022/04/20 01:59:05;;;;;;;19.73;10.32;;;;;;;5.01;92.94;101795.44;5088210;28;20511;-76
2022/04/20 02:04:15;;;;;;;13.10;9.80;;;;;;;4.94;93.82;101800.19;5088448;28;20051;-76
2022/04/20 02:06:40;;;;;;;17.42;9.70;;;;;;;4.89;93.73;101802.19;5070369;28;20028;-77
2022/04/20 02:09:05;;;;;;;16.75;9.27;;;;;;;4.84;93.68;101808.66;5070839;28;20036;-78
2022/04/20 02:11:31;;;;;;;14.52;10.10;;;;;;;4.76;93.79;101801.97;5092404;28;20123;-79
2022/04/20 02:13:58;;;;;;;18.58;9.50;;;;;;;4.73;94.12;101807.41;5092230;28;20162;-77
2022/04/20 02:16:23;;;;;;;15.43;9.90;;;;;;;4.69;94.26;101800.59;5092167;28;20167;-77
2022/04/20 02:18:49;;;;;;;17.27;10.27;;;;;;;4.67;94.41;101797.19;5092541;28;20273;-78
2022/04/20 02:21:15;;;;;;;16.65;10.30;;;;;;;4.66;93.95;101803.38;5073589;28;20039;-77
2022/04/20 02:23:40;;;;;;;18.20;11.15;;;;;;;4.61;93.93;101799.25;5073866;28;20036;-77
2022/04/20 02:26:06;;;;;;;17.20;10.15;;;;;;;4.55;94.09;101801.28;5056513;28;20027;-78
2022/04/20 02:28:31;;;;;;;16.67;10.13;;;;;;;4.50;93.96;101799.81;5092495;28;20085;-76
2022/04/20 02:30:57;;;;;;;24.00;10.85;;;;;;;4.45;94.07;101796.53;5091972;28;20028;-77
2022/04/20 02:33:22;;;;;;;17.35;10.30;;;;;;;4.39;94.35;101803.81;5073152;28;20298;-77
2022/04/20 02:35:47;;;;;;;15.60;10.30;;;;;;;4.36;94.52;101801.34;5092244;28;20459;-77
2022/04/20 02:38:15;;;;;;;16.23;9.95;;;;;;;4.32;94.78;101802.41;5091672;28;20079;-76
2022/04/20 02:40:41;;;;;;;21.65;9.98;;;;;;;4.28;94.86;101798.22;5091728;28;20459;-76
2022/04/20 02:43:07;;;;;;;19.90;10.05;;;;;;;4.26;95.20;101794.81;5091540;28;20048;-77
2022/04/20 02:45:33;;;;;;;15.82;10.05;;;;;;;4.25;95.46;101806.25;5091745;28;20089;-77
2022/04/20 02:48:03;;;;;;;16.20;10.05;;;;;;;4.22;95.65;101793.25;5092439;28;20032;-77
2022/04/20 02:50:28;;;;;;;15.23;9.20;;;;;;;4.19;95.55;101799.50;5073342;28;20077;-77
2022/04/20 02:52:54;;;;;;;19.80;9.95;;;;;;;4.18;95.09;101804.84;5056787;28;20454;-76
2022/04/20 02:55:20;;;;;;;15.70;10.07;;;;;;;4.16;95.41;101799.66;5091337;28;20028;-76
2022/04/20 02:57:45;;;;;;;16.90;10.18;;;;;;;4.13;95.35;101802.44;5091731;28;20043;-77
2022/04/20 03:00:12;;;;;;;18.58;9.20;;;;;;;4.13;95.36;101801.59;5072865;28;20068;-77
2022/04/20 03:02:37;;;;;;;19.05;10.07;;;;;;;4.14;94.82;101801.53;5092056;28;20040;-77
2022/04/20 03:05:03;;;;;;;18.25;8.85;;;;;;;4.13;95.14;101805.06;5091821;28;20028;-75
2022/04/20 03:07:29;;;;;;;13.77;9.02;;;;;;;4.10;95.30;101802.59;5090968;28;20063;-75
2022/04/20 03:09:54;;;;;;;14.50;9.88;;;;;;;4.13;95.35;101810.34;5056238;28;20122;-76
2022/04/20 03:12:19;;;;;;;17.33;9.65;;;;;;;4.11;95.46;101806.09;5090960;28;20032;-76
2022/04/20 03:14:45;;;;;;;17.77;8.80;;;;;;;4.08;95.32;101814.16;5091578;28;20042;-77
2022/04/20 03:17:12;;;;;;;14.50;9.00;;;;;;;4.03;94.84;101815.22;5090834;28;20380;-77
2022/04/20 03:19:37;;;;;;;16.10;9.45;;;;;;;4.00;94.77;101819.75;5073028;28;20040;-76
2022/04/20 03:22:02;;;;;;;14.60;9.23;;;;;;;3.95;94.75;101809.44;5091502;28;20034;-75
2022/04/20 03:24:28;;;;;;;16.83;8.63;;;;;;;3.89;94.15;101809.72;5072282;28;20602;-75
2022/04/20 03:26:53;;;;;;;16.27;8.63;;;;;;;3.85;94.15;101814.28;5091170;28;20043;-77
2022/04/20 03:29:19;;;;;;;14.82;9.50;;;;;;;3.80;94.31;101815.44;5090322;28;20075;-77
2022/04/20 03:31:44;;;;;;;16.02;9.13;;;;;;;3.75;93.44;101820.91;5056109;28;20468;-77
2022/04/20 03:34:11;;;;;;;12.88;8.18;;;;;;;3.69;93.35;101816.78;5072508;28;20048;-79
2022/04/20 03:36:37;;;;;;;13.07;8.23;;;;;;;3.65;93.70;101817.84;5072669;28;20369;-76
2022/04/20 03:39:03;;;;;;;12.75;8.77;;;;;;;3.62;93.88;101819.78;5072582;28;20032;-77
2022/04/20 03:41:28;;;;;;;19.55;9.60;;;;;;;3.59;94.36;101817.28;5071955;28;20502;-76
2022/04/20 03:43:54;;;;;;;13.63;8.45;;;;;;;3.56;94.76;101822.69;5090552;28;20047;-76
2022/04/20 03:46:21;;;;;;;19.52;10.10;;;;;;;3.57;95.41;101819.97;5090103;28;20479;-76
2022/04/20 03:48:46;;;;;;;14.52;9.23;;;;;;;3.55;95.81;101815.69;5090662;28;20111;-77
2022/04/20 03:51:12;;;;;;;13.23;9.32;;;;;;;3.57;96.37;101824.38;5090258;28;20123;-79
2022/04/20 03:53:37;;;;;;;14.60;9.75;;;;;;;3.57;96.67;101819.97;5090477;28;20036;-76
2022/04/20 03:56:03;;;;;;;13.65;9.55;;;;;;;3.56;96.57;101817.41;5090554;28;20042;-76
2022/04/20 03:58:29;;;;;;;19.05;9.93;;;;;;;3.56;96.42;101827.94;5090814;28;20164;-76
2022/04/20 04:00:54;;;;;;;14.45;8.85;;;;;;;3.55;96.55;101818.34;5091213;28;20059;-76
2022/04/20 04:03:19;;;;;;;15.55;9.38;;;;;;;3.51;96.36;101821.09;5090173;28;20126;-77
2022/04/20 04:05:45;;;;;;;13.45;8.93;;;;;;;3.48;96.11;101815.97;5090387;28;20432;-76
2022/04/20 04:08:10;;;;;;;13.43;8.77;;;;;;;3.45;95.68;101824.03;5090975;28;20032;-75
2022/04/20 04:10:36;;;;;;;13.10;8.52;;;;;;;3.41;95.91;101822.44;5071925;28;20040;-76
2022/04/20 04:13:02;;;;;;;16.15;9.15;;;;;;;3.38;95.63;101822.56;5090626;28;20036;-75
2022/04/20 04:15:28;;;;;;;18.50;9.55;;;;;;;3.34;95.45;101819.25;5089648;28;20490;-76
2022/04/20 04:17:59;;;;;;;12.13;8.35;;;;;;;3.30;95.32;101822.94;5072248;28;20063;-75
2022/04/20 04:20:27;;;;;;;15.90;8.77;;;;;;;3.31;95.42;101831.66;5090205;28;20435;-76
2022/04/20 04:22:54;;;;;;;12.73;8.98;;;;;;;3.30;96.00;101835.19;5090158;28;20130;-76
2022/04/20 04:25:19;;;;;;;14.10;9.18;;;;;;;3.30;96.19;101827.31;5089740;28;20060;-77
2022/04/20 04:27:45;;;;;;;13.30;8.40;;;;;;;3.27;96.08;101825.69;5071756;28;20476;-77
2022/04/20 04:30:11;;;;;;;13.15;8.18;;;;;;;3.23;95.83;101826.75;5071983;28;20032;-76
2022/04/20 04:32:37;;;;;;;11.70;8.13;;;;;;;3.21;95.47;101830.34;5089241;28;20028;-76
2022/04/20 04:35:03;;;;;;;11.95;9.18;;;;;;;3.20;95.53;101837.41;5089943;28;20115;-76
2022/04/20 04:37:28;;;;;;;16.52;9.88;;;;;;;3.17;95.14;101833.13;5089474;28;20032;-77
2022/04/20 04:39:53;;;;;;;13.65;9.15;;;;;;;3.15;95.34;101842.00;5072009;28;20028;-77
2022/04/20 04:42:19;;;;;;;13.90;8.45;;;;;;;3.15;95.09;101837.59;5089429;28;20071;-80
2022/04/20 04:44:44;;;;;;;13.05;7.63;;;;;;;3.14;95.12;101845.56;5089788;28;20048;-77
2022/04/20 04:49:54;;;;;;;17.08;8.73;;;;;;;3.10;95.16;101844.81;5090066;28;20086;-76
2022/04/20 04:52:20;;;;;;;10.35;7.28;;;;;;;3.09;94.97;101847.53;5089178;28;20433;-79
2022/04/20 04:54:45;;;;;;;11.40;8.18;;;;;;;3.08;94.43;101851.09;5089556;28;20038;-76
2022/04/20 04:57:12;;;;;;;13.60;9.27;;;;;;;3.08;95.29;101856.34;5089752;28;20520;-76
2022/04/20 04:59:38;;;;;;;19.45;11.20;;;;;;;3.08;94.90;101859.81;5089136;28;20407;-76
2022/04/20 05:02:04;;;;;;;18.85;12.50;;;;;;;3.10;94.89;101867.66;5089628;28;20036;-76
2022/04/20 05:04:30;;;;;;;17.08;9.95;;;;;;;3.12;94.98;101864.03;5088943;28;20043;-76
2022/04/20 05:06:56;;;;;;;16.10;9.77;;;;;;;3.15;95.11;101868.28;5089329;28;20132;-77
2022/04/20 05:09:22;;;;;;;13.05;8.30;;;;;;;3.18;95.03;101865.56;5070228;28;20127;-81
2022/04/20 05:11:48;;;;;;;13.65;8.05;;;;;;;3.22;95.18;101866.25;5089230;28;20111;-75
2022/04/20 05:14:17;;;;;;;14.32;9.57;;;;;;;3.28;95.41;101866.00;5089166;28;20096;-77
2022/04/20 05:16:42;;;;;;;18.27;9.10;;;;;;;3.33;95.66;101870.13;5088468;28;20331;-76
2022/04/20 05:19:09;;;;;;;13.98;8.57;;;;;;;3.41;95.82;101864.53;5089217;28;20480;-75
2022/04/20 05:21:34;;;;;;;12.38;8.43;;;;;;;3.50;96.02;101876.44;5070125;28;20036;-76
2022/04/20 05:24:00;;;;;;;14.00;8.55;;;;;;;3.57;95.80;101872.63;5088913;28;20035;-75
2022/04/20 05:26:25;;;;;;;13.05;9.05;;;;;;;3.64;95.87;101860.91;5070108;28;20484;-76
2022/04/20 05:28:51;;;;;;;12.55;8.88;;;;;;;3.72;95.53;101863.19;5089112;28;20147;-75
2022/04/20 05:31:17;;;;;;;12.13;7.72;;;;;;;3.82;95.34;101869.72;5088997;28;20119;-74
2022/04/20 05:33:42;;;;;;;15.40;7.68;;;;;;;3.89;95.28;101875.56;5088443;28;20039;-78
2022/04/20 05:36:08;;;;;;;13.95;8.25;;;;;;;4.00;95.12;101875.06;5071043;28;20373;-78
2022/04/20 05:44:02;;;;;;;10.45;6.93;;;;;;;4.41;94.55;101882.81;5093971;28;20059;-77
2022/04/20 05:46:27;;;;;;;9.10;6.93;;;;;;;4.55;93.95;101879.50;5075261;28;20445;-77
2022/04/20 05:48:52;;;;;;;9.95;6.60;;;;;;;4.71;93.14;101884.88;5075147;28;20027;-78
2022/04/20 05:51:18;;;;;;;7.80;6.40;;;;;;;4.87;92.25;101884.97;5074998;28;20047;-76
2022/04/20 05:53:44;;;;;;;10.43;6.35;;;;;;;5.04;90.60;101886.75;5073855;28;20097;-78
2022/04/20 05:56:09;;;;;;;9.60;6.10;;;;;;;5.23;89.44;101886.69;5093307;28;20093;-77
2022/04/20 05:58:35;;;;;;;8.32;6.15;;;;;;;5.39;88.76;101892.00;5092468;28;20032;-76
2022/04/20 06:01:00;;;;;;;8.45;6.10;;;;;;;5.55;87.20;101890.28;5074524;28;20036;-77
2022/04/20 06:03:25;;;;;;;8.85;5.95;;;;;;;5.72;85.87;101888.53;5092722;28;20043;-82
2022/04/20 06:05:51;;;;;;;7.88;5.93;;;;;;;5.86;85.17;101890.44;5074059;28;20080;-77
2022/04/20 06:08:16;;;;;;;9.63;5.60;;;;;;;6.04;84.23;101885.97;5074291;28;20066;-77
2022/04/20 06:10:46;;;;;;;8.57;5.45;;;;;;;6.21;83.53;101885.03;5092256;28;20036;-78
2022/04/20 06:13:11;;;;;;;7.10;5.28;;;;;;;6.37;82.07;101887.69;5074124;28;20232;-78
2022/04/20 06:15:37;;;;;;;6.68;5.18;;;;;;;6.53;81.24;101888.53;5092516;28;20119;-77
2022/04/20 06:18:03;;;;;;;8.02;4.90;;;;;;;6.71;79.67;101895.41;5074609;28;20514;-76
2022/04/20 06:20:28;;;;;;;10.23;4.95;;;;;;;6.88;77.37;101889.16;5092552;28;20165;-79
2022/04/20 06:22:53;;;;;;;6.40;4.72;;;;;;;7.00;78.18;101892.88;5074021;28;20472;-76
2022/04/20 06:25:19;;;;;;;8.38;5.15;;;;;;;7.16;77.26;101894.59;5092674;28;20140;-76
2022/04/20 06:27:44;;;;;;;6.57;4.78;;;;;;;7.33;75.39;101898.88;5092127;28;20437;-78
2022/04/20 06:30:10;;;;;;;7.15;4.80;;;;;;;7.46;74.15;101899.84;5092591;28;20044;-77
2022/04/20 06:32:36;;;;;;;4.78;4.22;;;;;;;7.63;75.23;101901.50;5073434;28;20048;-79
2022/04/20 06:35:02;;;;;;;8.55;4.80;;;;;;;7.75;73.89;101897.25;5074233;28;20074;-79
2022/04/20 06:37:28;;;;;;;10.52;5.45;;;;;;;7.87;73.59;101898.28;5092923;28;20032;-81
2022/04/20 06:39:56;;;;;;;6.07;4.20;;;;;;;8.02;74.06;101894.66;5073808;28;20463;-73
2022/04/20 06:42:22;;;;;;;5.32;4.38;;;;;;;8.16;72.11;101896.41;5074060;28;20059;-78
2022/04/20 06:44:47;;;;;;;5.07;4.32;;;;;;;8.28;71.42;101908.91;5073816;28;20031;-76
2022/04/20 06:47:12;;;;;;;6.57;4.68;;;;;;;8.39;69.98;101902.91;5092590;28;20081;-78
2022/04/20 06:49:38;;;;;;;9.13;4.88;;;;;;;8.51;69.43;101903.09;5091624;28;20071;-80
2022/04/20 07:00:16;;;;;;;6.18;4.28;;;;;;;8.98;68.54;101904.44;5062566;28;20063;-78
2022/04/20 07:02:42;;;;;;;5.97;4.50;;;;;;;9.13;67.60;101902.53;5072485;28;20032;-77
2022/04/20 07:05:09;;;;;;;7.38;4.57;;;;;;;9.25;66.70;101906.19;5091317;28;20035;-78
2022/04/20 07:07:35;;;;;;;7.13;4.72;;;;;;;9.38;65.87;101901.72;5073041;28;20032;-82
2022/04/20 07:10:01;;;;;;;6.85;4.38;;;;;;;9.48;66.12;101897.47;5073461;28;20043;-75
2022/04/20 07:12:26;;;;;;;9.57;4.30;;;;;;;9.65;64.07;101906.09;5091298;28;20070;-77
2022/04/20 07:14:52;;;;;;;4.97;4.00;;;;;;;9.78;63.68;101906.94;5072589;28;20369;-77
2022/04/20 07:17:20;;;;;;;11.77;5.20;;;;;;;9.91;64.20;101912.22;5091244;28;20041;-74
2022/04/20 07:19:45;;;;;;;9.35;4.68;;;;;;;9.99;62.37;101911.69;5090824;28;20108;-76
2022/04/20 07:22:11;;;;;;;11.07;4.47;;;;;;;10.20;61.92;101914.63;5091566;28;20111;-76
2022/04/20 07:24:36;;;;;;;7.03;4.20;;;;;;;10.27;59.56;101915.03;5090493;28;20127;-74
2022/04/20 07:27:02;;;;;;;8.77;4.20;;;;;;;10.41;59.90;101912.25;5072434;28;20380;-73
2022/04/20 07:29:27;;;;;;;6.32;4.10;;;;;;;10.52;60.21;101914.97;5091082;28;20395;-73
2022/04/20 07:31:53;;;;;;;12.48;4.93;;;;;;;10.66;59.49;101915.75;5090146;28;20453;-73
2022/04/20 07:34:18;;;;;;;8.25;4.72;;;;;;;10.82;58.08;101918.13;5091031;28;20032;-74
2022/04/20 07:36:43;;;;;;;5.95;4.20;;;;;;;11.00;58.20;101907.91;5071998;28;20492;-77
2022/04/20 07:39:09;;;;;;;5.78;4.05;;;;;;;11.13;57.58;101913.19;5091165;28;20440;-77
2022/04/20 07:41:34;;;;;;;7.43;3.90;;;;;;;11.23;55.74;101909.69;5090731;28;20496;-75
2022/04/20 07:43:59;;;;;;;5.03;4.05;;;;;;;11.26;55.03;101909.47;5090437;28;20290;-74
2022/04/20 07:46:25;;;;;;;10.10;3.55;;;;;;;11.48;56.14;101913.16;5072483;28;20546;-73
2022/04/20 07:48:50;;;;;;;5.03;4.53;;;;;;;11.67;55.79;101917.03;5090580;28;20150;-75
2022/04/20 07:51:17;;;;;;;4.97;4.07;;;;;;;11.69;54.63;101913.28;5072382;28;20502;-74
2022/04/20 07:53:43;;;;;;;6.55;4.05;;;;;;;11.79;54.03;101911.59;5072286;28;20475;-72
2022/04/20 07:56:09;;;;;;;4.35;3.65;;;;;;;11.97;54.06;101911.13;5090766;28;20043;-73
2022/04/20 07:58:34;;;;;;;7.32;3.88;;;;;;;12.22;54.22;101904.69;5084925;28;20040;-75
2022/04/20 08:01:00;;;;;;;7.60;4.20;;;;;;;12.57;53.03;101913.44;5050129;28;20040;-76
2022/04/20 08:03:25;;;;;;;5.90;4.18;;;;;;;12.88;53.05;101914.44;5049348;28;20233;-76
2022/04/20 08:05:52;;;;;;;7.38;3.70;;;;;;;13.18;50.01;101916.38;5066227;28;20040;-78
2022/04/20 08:08:18;;;;;;;6.05;4.00;;;;;;;13.42;50.11;101925.13;5070510;28;20410;-79
2022/04/20 08:10:44;;;;;;;5.00;4.05;;;;;;;13.54;49.53;101924.06;5051135;28;20072;-79
2022/04/20 08:15:55;;;;;;;10.07;4.55;;;;;;;14.32;49.46;101921.72;5067701;28;20106;-80
2022/04/20 08:18:21;;;;;;;4.28;3.72;;;;;;;14.66;49.02;101917.84;5070262;28;20052;-80
2022/04/20 08:20:47;;;;;;;7.75;4.03;;;;;;;14.99;47.08;101917.44;5050136;28;20473;-77
2022/04/20 08:23:12;;;;;;;6.25;3.88;;;;;;;15.26;45.79;101915.84;5050731;28;20127;-78
2022/04/20 08:25:39;;;;;;;5.57;3.85;;;;;;;15.82;42.36;101922.25;5049910;28;20028;-78
2022/04/20 08:28:05;;;;;;;11.05;4.07;;;;;;;15.49;43.21;101919.03;5067378;28;20036;-83
2022/04/20 08:30:31;;;;;;;7.38;3.92;;;;;;;16.09;43.49;101923.22;5083900;28;20805;-77
2022/04/20 08:32:56;;;;;;;11.48;3.88;;;;;;;16.32;42.64;101922.84;5090288;28;20232;-79
2022/04/20 08:35:22;;;;;;;6.70;3.38;;;;;;;16.37;40.46;101920.53;5074114;28;20035;-85
2022/04/20 08:37:48;;;;;;;4.40;4.00;;;;;;;16.36;41.35;101932.25;5074078;28;20161;-84
2022/04/20 08:40:14;;;;;;;4.45;3.67;;;;;;;16.17;42.18;101928.69;5041478;28;20044;-83
2022/04/20 08:42:41;;;;;;;6.60;3.58;;;;;;;16.18;41.64;101922.34;5092704;28;20043;-82
2022/04/20 08:45:09;;;;;;;4.95;3.90;;;;;;;16.30;42.66;101919.44;5073158;28;20164;-80
2022/04/20 08:47:37;;;;;;;4.88;3.58;;;;;;;16.46;42.55;101918.78;5057600;28;20046;-81
2022/04/20 08:50:05;;;;;;;12.45;3.90;;;;;;;16.57;41.86;101921.25;5073094;28;20040;-79
2022/04/20 08:52:46;;;;;;;6.88;3.80;;;;;;;16.81;39.61;101915.28;5072742;28;20027;-80
2022/04/20 08:55:17;;;;;;;5.22;3.50;;;;;;;17.12;39.85;101920.25;5090336;28;20392;-77
2022/04/20 08:57:45;;;;;;;4.55;3.38;;;;;;;17.21;38.59;101919.34;5090426;28;20028;-80
2022/04/20 09:00:13;;;;;;;3.90;3.50;;;;;;;17.64;37.99;101924.81;5089882;28;20028;-79
2022/04/20 09:02:40;;;;;;;7.85;3.70;;;;;;;18.65;38.95;101921.34;5090158;28;20039;-79
2022/04/20 09:05:06;;;;;;;5.57;3.58;;;;;;;19.23;35.21;101907.06;5089385;28;20464;-79
2022/04/20 09:07:32;;;;;;;9.50;3.70;;;;;;;20.24;32.67;101910.97;5071688;28;20063;-79
2022/04/20 09:09:58;;;;;;;4.47;2.90;;;;;;;21.20;30.67;101911.50;5071350;28;20040;-80
2022/04/20 09:12:23;;;;;;;8.77;2.55;;;;;;;22.24;29.60;101910.66;5072017;28;20040;-79
2022/04/20 09:14:50;;;;;;;11.18;2.95;;;;;;;22.56;28.96;101913.09;5071816;28;20024;-80
2022/04/20 09:17:19;;;;;;;3.28;2.63;;;;;;;23.39;27.72;101903.44;5089680;28;20028;-87
2022/04/20 09:19:55;;;;;;;3.63;2.42;;;;;;;23.85;26.46;101906.59;5091379;28;20440;-78
2022/04/20 09:22:29;;;;;;;6.25;2.70;;;;;;;24.06;23.92;101895.63;5090299;28;20063;-79
2022/04/20 09:25:10;;;;;;;6.53;2.55;;;;;;;23.88;25.78;101900.81;5090539;28;20457;-81
2022/04/20 09:27:37;;;;;;;6.85;3.20;;;;;;;23.93;24.24;101893.72;5090688;28;20380;-79
2022/04/20 09:30:23;;;;;;;4.80;2.63;;;;;;;24.12;23.94;101899.44;5089495;28;20088;-81
2022/04/20 09:32:49;;;;;;;7.25;2.53;;;;;;;24.11;25.25;101895.06;5088832;28;20036;-80
2022/04/20 09:35:18;;;;;;;7.32;2.75;;;;;;;24.45;24.75;101898.69;5062359;28;20059;-80
2022/04/20 09:37:44;;;;;;;8.77;3.10;;;;;;;23.72;26.03;101900.06;5071927;28;20417;-79
2022/04/20 09:40:12;;;;;;;5.80;2.67;;;;;;;23.59;25.13;101898.13;5050377;28;20028;-82
2022/04/20 09:42:57;;;;;;;7.70;2.80;;;;;;;23.96;26.24;101899.78;5068950;28;20104;-81
2022/04/20 09:45:23;;;;;;;5.80;3.00;;;;;;;24.11;25.61;101895.06;5050784;28;20107;-77
2022/04/20 09:50:32;;;;;;;6.72;2.60;;;;;;;24.43;23.87;101889.91;5069099;28;20472;-82
2022/04/20 09:53:02;;;;;;;4.50;2.50;;;;;;;23.94;24.46;101889.97;5069463;28;20033;-81
2022/04/20 09:55:37;;;;;;;7.97;2.67;;;;;;;24.35;25.13;101885.50;5070011;28;20473;-79
2022/04/20 09:58:19;;;;;;;5.82;2.50;;;;;;;24.77;24.08;101882.66;5068595;28;20108;-79
2022/04/20 10:00:51;;;;;;;6.72;2.60;;;;;;;24.62;24.23;101885.56;5070378;28;20115;-82
2022/04/20 10:03:24;;;;;;;3.30;2.58;;;;;;;24.52;24.59;101883.22;5051838;28;20119;-81
2022/04/20 10:05:49;;;;;;;4.63;3.05;;;;;;;24.30;24.76;101890.69;5051795;28;20361;-80
2022/04/20 10:08:15;;;;;;;6.55;2.85;;;;;;;24.33;22.16;101875.84;5069782;28;20039;-82
2022/04/20 10:10:42;;;;;;;4.05;2.60;;;;;;;24.86;23.29;101881.41;5070108;28;20029;-79
2022/04/20 10:13:10;;;;;;;6.15;2.80;;;;;;;24.87;23.89;101874.06;5070315;28;20037;-81
2022/04/20 10:18:21;;;;;;;5.47;2.70;;;;;;;24.78;24.63;101871.56;5069072;28;20520;-80
2022/04/20 10:20:54;;;;;;;4.65;2.40;;;;;;;25.27;23.04;101863.13;5069465;28;20448;-81
2022/04/20 10:23:21;;;;;;;5.63;2.70;;;;;;;24.60;23.30;101864.03;5051355;28;20040;-84
2022/04/20 10:25:49;;;;;;;4.05;2.63;;;;;;;25.15;23.65;101869.25;5070507;28;20029;-79
2022/04/20 10:28:27;;;;;;;4.15;2.50;;;;;;;24.75;23.71;101866.53;5069165;28;20119;-79
2022/04/20 10:31:05;;;;;;;4.97;2.70;;;;;;;24.87;23.58;101863.19;5071958;28;20042;-79
2022/04/20 10:33:33;;;;;;;3.47;2.72;;;;;;;24.76;22.90;101859.19;5073153;28;20029;-83
2022/04/20 10:36:04;;;;;;;5.93;2.95;;;;;;;24.66;23.36;101865.03;5055697;28;20479;-81
2022/04/20 10:38:31;;;;;;;;;;;;;;;24.25;23.37;101855.97;5073004;28;20517;-78
2022/04/20 10:41:10;;;;;;;4.05;2.85;;;;;;;24.14;24.10;101862.03;5072158;28;19920;-78
2022/04/20 10:43:42;;;;;;;6.15;3.08;;;;;;;24.76;22.96;101857.31;5044863;28;20195;-80
2022/04/20 10:46:08;;;;;;;5.25;2.58;;;;;;;25.32;22.40;101852.50;5069677;28;20166;-79
2022/04/20 10:48:44;;;;;;;4.72;2.35;;;;;;;25.43;23.23;101845.53;5070347;28;20068;-82
2022/04/20 10:51:16;;;;;;;6.30;2.67;;;;;;;25.78;23.13;101845.19;5050620;28;20036;-80
2022/04/20 10:53:48;;;;;;;3.83;2.70;;;;;;;26.13;22.25;101850.31;5069050;28;20036;-82
2022/04/20 10:56:14;;;;;;;5.80;2.80;;;;;;;24.54;23.48;101842.19;5069712;28;20040;-81
2022/04/20 10:59:04;;;;;;;6.78;2.92;;;;;;;24.96;22.60;101838.28;5069743;28;20032;-80
2022/04/20 11:01:30;;;;;;;4.95;2.50;;;;;;;25.46;24.06;101836.94;5071087;28;20036;-81
2022/04/20 11:04:01;;;;;;;4.57;2.78;;;;;;;25.80;23.87;101838.47;5070249;28;20064;-86
2022/04/20 11:06:58;;;;;;;5.15;2.75;;;;;;;25.82;22.41;101825.47;5069453;28;20136;-83
2022/04/20 11:09:45;;;;;;;5.22;3.35;;;;;;;25.78;23.17;101835.16;5050512;28;20086;-81
2022/04/20 11:21:13;;;;;;;5.78;2.85;;;;;;;25.47;22.96;101823.09;5069073;28;20369;-86
2022/04/20 11:24:07;;;;;;;5.43;2.53;;;;;;;25.18;23.64;101813.50;5068946;28;20353;-78
2022/04/20 11:26:40;;;;;;;3.90;2.80;;;;;;;25.17;24.20;101815.41;5069352;28;20469;-78
2022/04/20 11:29:22;;;;;;;5.03;2.90;;;;;;;25.30;25.24;101811.84;5051463;28;20028;-78
2022/04/20 11:31:58;;;;;;;5.43;2.88;;;;;;;25.50;23.30;101813.66;5067942;28;20031;-75
2022/04/20 11:34:26;;;;;;;3.75;2.70;;;;;;;25.17;24.48;101806.41;5049226;28;20028;-81
2022/04/20 11:36:55;;;;;;;4.35;2.80;;;;;;;25.54;23.24;101803.16;5069062;28;20044;-76
2022/04/20 11:39:23;;;;;;;6.65;2.90;;;;;;;25.45;24.25;101805.28;5067728;28;20329;-77
2022/04/20 11:41:53;;;;;;;4.10;2.92;;;;;;;26.06;22.45;101800.41;5067681;28;20154;-76
2022/04/20 11:44:23;;;;;;;6.18;2.78;;;;;;;25.21;23.80;101795.91;5049290;28;20052;-76
2022/04/20 11:46:49;;;;;;;2.97;2.13;;;;;;;26.19;22.40;101790.25;5068348;28;20028;-79
2022/04/20 11:49:16;;;;;;;3.67;2.60;;;;;;;26.20;21.98;101791.94;5067585;28;20029;-75
2022/04/20 11:51:57;;;;;;;4.70;2.90;;;;;;;25.95;21.58;101786.41;5067958;28;20025;-73
2022/04/20 11:54:24;;;;;;;3.95;2.70;;;;;;;25.62;22.81;101778.41;5069133;28;20032;-77
2022/04/20 11:56:50;;;;;;;3.70;3.00;;;;;;;25.52;23.99;101774.25;5068154;28;20036;-73
2022/04/20 11:59:24;;;;;;;2.95;2.63;;;;;;;25.82;22.99;101778.31;5066870;28;20706;-75
2022/04/20 12:01:50;;;;;;;4.55;3.03;;;;;;;25.53;23.90;101777.81;5066755;28;20523;-76
2022/04/20 12:04:21;;;;;;;6.70;2.78;;;;;;;25.39;23.59;101782.47;5067086;28;20032;-78